<?xml version="1.0" encoding="UTF-8" standalone="no" ?>
<gpx xmlns="http://www.topografix.com/GPX/1/1" xmlns:xsi="http://www.w3.org/2001/XMLSchema-instance" xsi:schemaLocation="http://www.topografix.com/GPX/1/1 http://www.topografix.com/GPX/1/1/gpx.xsd" version="1.1" creator="VisuGPX - https://www.visugpx.com">
  <metadata>
    <name>Les tunnels de l'albarine</name>
    <desc><![CDATA[boucle sur sentier au dessus des tunnels, puis retour par les tunnels (lampes et casques conseillés) ]]></desc>
  </metadata>
  <trk>
    <name><![CDATA[train fantome enfants]]></name>
    <trkseg>
      <trkpt lat="45.96858" lon="5.57509">
        <ele>726.8</ele>
        <time>2014-06-23T10:05:55Z</time>
      </trkpt>
      <trkpt lat="45.96857" lon="5.57509">
        <ele>726.4</ele>
        <time>2014-06-23T10:08:17Z</time>
      </trkpt>
      <trkpt lat="45.96856" lon="5.57469">
        <ele>727.1</ele>
        <time>2014-06-23T10:08:27Z</time>
      </trkpt>
      <trkpt lat="45.96874" lon="5.57453">
        <ele>728.4</ele>
        <time>2014-06-23T10:08:37Z</time>
      </trkpt>
      <trkpt lat="45.96901" lon="5.57454">
        <ele>733</ele>
        <time>2014-06-23T10:09:00Z</time>
      </trkpt>
      <trkpt lat="45.96904" lon="5.5743">
        <ele>736.6</ele>
        <time>2014-06-23T10:09:17Z</time>
      </trkpt>
      <trkpt lat="45.96878" lon="5.5739">
        <ele>742.4</ele>
        <time>2014-06-23T10:09:46Z</time>
      </trkpt>
      <trkpt lat="45.96852" lon="5.57368">
        <ele>744.7</ele>
        <time>2014-06-23T10:10:07Z</time>
      </trkpt>
      <trkpt lat="45.96837" lon="5.57332">
        <ele>747.6</ele>
        <time>2014-06-23T10:10:25Z</time>
      </trkpt>
      <trkpt lat="45.96827" lon="5.57274">
        <ele>749.7</ele>
        <time>2014-06-23T10:10:49Z</time>
      </trkpt>
      <trkpt lat="45.9679" lon="5.57179">
        <ele>749.3</ele>
        <time>2014-06-23T10:11:11Z</time>
      </trkpt>
      <trkpt lat="45.96782" lon="5.57137">
        <ele>750.4</ele>
        <time>2014-06-23T10:11:20Z</time>
      </trkpt>
      <trkpt lat="45.96785" lon="5.57108">
        <ele>754.4</ele>
        <time>2014-06-23T10:11:33Z</time>
      </trkpt>
      <trkpt lat="45.96777" lon="5.57066">
        <ele>758.3</ele>
        <time>2014-06-23T10:11:53Z</time>
      </trkpt>
      <trkpt lat="45.9678" lon="5.57056">
        <ele>758</ele>
        <time>2014-06-23T10:12:43Z</time>
      </trkpt>
      <trkpt lat="45.96805" lon="5.57057">
        <ele>761</ele>
        <time>2014-06-23T10:13:14Z</time>
      </trkpt>
      <trkpt lat="45.96799" lon="5.57032">
        <ele>763.8</ele>
        <time>2014-06-23T10:13:28Z</time>
      </trkpt>
      <trkpt lat="45.96793" lon="5.56989">
        <ele>767.2</ele>
        <time>2014-06-23T10:13:45Z</time>
      </trkpt>
      <trkpt lat="45.968" lon="5.56947">
        <ele>770.1</ele>
        <time>2014-06-23T10:14:00Z</time>
      </trkpt>
      <trkpt lat="45.96837" lon="5.5695">
        <ele>774.7</ele>
        <time>2014-06-23T10:14:26Z</time>
      </trkpt>
      <trkpt lat="45.96866" lon="5.56959">
        <ele>778.9</ele>
        <time>2014-06-23T10:14:43Z</time>
      </trkpt>
      <trkpt lat="45.96885" lon="5.56956">
        <ele>780.2</ele>
        <time>2014-06-23T10:14:53Z</time>
      </trkpt>
      <trkpt lat="45.96924" lon="5.5696">
        <ele>783.1</ele>
        <time>2014-06-23T10:15:14Z</time>
      </trkpt>
      <trkpt lat="45.96994" lon="5.56949">
        <ele>788.6</ele>
        <time>2014-06-23T10:15:48Z</time>
      </trkpt>
      <trkpt lat="45.97034" lon="5.56966">
        <ele>792.8</ele>
        <time>2014-06-23T10:16:08Z</time>
      </trkpt>
      <trkpt lat="45.97064" lon="5.57">
        <ele>796.9</ele>
        <time>2014-06-23T10:16:24Z</time>
      </trkpt>
      <trkpt lat="45.97141" lon="5.57023">
        <ele>800.1</ele>
        <time>2014-06-23T10:16:46Z</time>
      </trkpt>
      <trkpt lat="45.97163" lon="5.57019">
        <ele>800.5</ele>
        <time>2014-06-23T10:16:52Z</time>
      </trkpt>
      <trkpt lat="45.97196" lon="5.57002">
        <ele>800.1</ele>
        <time>2014-06-23T10:17:02Z</time>
      </trkpt>
      <trkpt lat="45.97213" lon="5.56975">
        <ele>798.9</ele>
        <time>2014-06-23T10:17:06Z</time>
      </trkpt>
      <trkpt lat="45.9722" lon="5.56925">
        <ele>796</ele>
        <time>2014-06-23T10:17:12Z</time>
      </trkpt>
      <trkpt lat="45.97209" lon="5.56876">
        <ele>796.8</ele>
        <time>2014-06-23T10:17:20Z</time>
      </trkpt>
      <trkpt lat="45.97187" lon="5.56838">
        <ele>798.2</ele>
        <time>2014-06-23T10:17:28Z</time>
      </trkpt>
      <trkpt lat="45.97185" lon="5.56777">
        <ele>800.6</ele>
        <time>2014-06-23T10:17:40Z</time>
      </trkpt>
      <trkpt lat="45.97176" lon="5.56662">
        <ele>803</ele>
        <time>2014-06-23T10:17:58Z</time>
      </trkpt>
      <trkpt lat="45.97181" lon="5.56617">
        <ele>802.7</ele>
        <time>2014-06-23T10:18:05Z</time>
      </trkpt>
      <trkpt lat="45.97181" lon="5.56587">
        <ele>801.9</ele>
        <time>2014-06-23T10:18:09Z</time>
      </trkpt>
      <trkpt lat="45.97174" lon="5.56533">
        <ele>800.9</ele>
        <time>2014-06-23T10:18:15Z</time>
      </trkpt>
      <trkpt lat="45.97164" lon="5.56493">
        <ele>798.5</ele>
        <time>2014-06-23T10:18:19Z</time>
      </trkpt>
      <trkpt lat="45.97152" lon="5.56377">
        <ele>794</ele>
        <time>2014-06-23T10:18:31Z</time>
      </trkpt>
      <trkpt lat="45.97142" lon="5.56341">
        <ele>793.3</ele>
        <time>2014-06-23T10:18:35Z</time>
      </trkpt>
      <trkpt lat="45.97109" lon="5.56282">
        <ele>790.9</ele>
        <time>2014-06-23T10:18:43Z</time>
      </trkpt>
      <trkpt lat="45.97088" lon="5.56261">
        <ele>789.5</ele>
        <time>2014-06-23T10:18:47Z</time>
      </trkpt>
      <trkpt lat="45.97043" lon="5.56261">
        <ele>787.5</ele>
        <time>2014-06-23T10:18:56Z</time>
      </trkpt>
      <trkpt lat="45.97008" lon="5.5624">
        <ele>786.2</ele>
        <time>2014-06-23T10:19:02Z</time>
      </trkpt>
      <trkpt lat="45.96988" lon="5.56162">
        <ele>783.2</ele>
        <time>2014-06-23T10:19:14Z</time>
      </trkpt>
      <trkpt lat="45.9698" lon="5.56089">
        <ele>789.5</ele>
        <time>2014-06-23T10:19:23Z</time>
      </trkpt>
      <trkpt lat="45.96968" lon="5.56042">
        <ele>783.5</ele>
        <time>2014-06-23T10:19:29Z</time>
      </trkpt>
      <trkpt lat="45.96948" lon="5.56024">
        <ele>781.2</ele>
        <time>2014-06-23T10:19:33Z</time>
      </trkpt>
      <trkpt lat="45.96906" lon="5.56002">
        <ele>780.3</ele>
        <time>2014-06-23T10:19:41Z</time>
      </trkpt>
      <trkpt lat="45.96845" lon="5.55957">
        <ele>781.3</ele>
        <time>2014-06-23T10:19:55Z</time>
      </trkpt>
      <trkpt lat="45.96809" lon="5.55926">
        <ele>781.7</ele>
        <time>2014-06-23T10:20:03Z</time>
      </trkpt>
      <trkpt lat="45.96756" lon="5.55869">
        <ele>780.8</ele>
        <time>2014-06-23T10:20:15Z</time>
      </trkpt>
      <trkpt lat="45.96729" lon="5.55824">
        <ele>779.3</ele>
        <time>2014-06-23T10:20:23Z</time>
      </trkpt>
      <trkpt lat="45.96709" lon="5.55803">
        <ele>781</ele>
        <time>2014-06-23T10:20:29Z</time>
      </trkpt>
      <trkpt lat="45.96686" lon="5.55787">
        <ele>783.4</ele>
        <time>2014-06-23T10:20:35Z</time>
      </trkpt>
      <trkpt lat="45.9666" lon="5.55753">
        <ele>783.9</ele>
        <time>2014-06-23T10:20:42Z</time>
      </trkpt>
      <trkpt lat="45.9664" lon="5.55738">
        <ele>783.3</ele>
        <time>2014-06-23T10:20:49Z</time>
      </trkpt>
      <trkpt lat="45.96616" lon="5.5571">
        <ele>786.4</ele>
        <time>2014-06-23T10:20:58Z</time>
      </trkpt>
      <trkpt lat="45.96593" lon="5.55694">
        <ele>785.2</ele>
        <time>2014-06-23T10:21:22Z</time>
      </trkpt>
      <trkpt lat="45.96547" lon="5.55733">
        <ele>785.8</ele>
        <time>2014-06-23T10:21:34Z</time>
      </trkpt>
      <trkpt lat="45.96517" lon="5.55752">
        <ele>784.6</ele>
        <time>2014-06-23T10:21:40Z</time>
      </trkpt>
      <trkpt lat="45.9645" lon="5.55811">
        <ele>784.6</ele>
        <time>2014-06-23T10:21:56Z</time>
      </trkpt>
      <trkpt lat="45.96434" lon="5.55833">
        <ele>784.9</ele>
        <time>2014-06-23T10:22:01Z</time>
      </trkpt>
      <trkpt lat="45.96398" lon="5.5582">
        <ele>786.7</ele>
        <time>2014-06-23T10:22:42Z</time>
      </trkpt>
      <trkpt lat="45.96374" lon="5.55821">
        <ele>787.9</ele>
        <time>2014-06-23T10:22:48Z</time>
      </trkpt>
      <trkpt lat="45.96332" lon="5.5584">
        <ele>787.4</ele>
        <time>2014-06-23T10:22:56Z</time>
      </trkpt>
      <trkpt lat="45.96292" lon="5.55835">
        <ele>786.2</ele>
        <time>2014-06-23T10:23:08Z</time>
      </trkpt>
      <trkpt lat="45.96266" lon="5.5579">
        <ele>788.7</ele>
        <time>2014-06-23T10:25:05Z</time>
      </trkpt>
      <trkpt lat="45.96233" lon="5.55756">
        <ele>795.4</ele>
        <time>2014-06-23T10:25:24Z</time>
      </trkpt>
      <trkpt lat="45.96212" lon="5.55703">
        <ele>795.3</ele>
        <time>2014-06-23T10:25:41Z</time>
      </trkpt>
      <trkpt lat="45.96211" lon="5.55674">
        <ele>793.5</ele>
        <time>2014-06-23T10:25:46Z</time>
      </trkpt>
      <trkpt lat="45.96244" lon="5.55578">
        <ele>792.8</ele>
        <time>2014-06-23T10:26:11Z</time>
      </trkpt>
      <trkpt lat="45.96281" lon="5.5557">
        <ele>799.8</ele>
        <time>2014-06-23T10:26:36Z</time>
      </trkpt>
      <trkpt lat="45.9633" lon="5.55579">
        <ele>795.1</ele>
        <time>2014-06-23T10:26:47Z</time>
      </trkpt>
      <trkpt lat="45.96372" lon="5.55569">
        <ele>797</ele>
        <time>2014-06-23T10:27:01Z</time>
      </trkpt>
      <trkpt lat="45.9642" lon="5.55541">
        <ele>798.1</ele>
        <time>2014-06-23T10:27:17Z</time>
      </trkpt>
      <trkpt lat="45.96434" lon="5.55505">
        <ele>800.7</ele>
        <time>2014-06-23T10:27:32Z</time>
      </trkpt>
      <trkpt lat="45.96435" lon="5.55463">
        <ele>806.6</ele>
        <time>2014-06-23T10:27:51Z</time>
      </trkpt>
      <trkpt lat="45.96428" lon="5.55434">
        <ele>807.9</ele>
        <time>2014-06-23T10:28:01Z</time>
      </trkpt>
      <trkpt lat="45.96398" lon="5.55399">
        <ele>808.5</ele>
        <time>2014-06-23T10:28:22Z</time>
      </trkpt>
      <trkpt lat="45.96366" lon="5.55372">
        <ele>810.5</ele>
        <time>2014-06-23T10:29:13Z</time>
      </trkpt>
      <trkpt lat="45.96363" lon="5.55341">
        <ele>809.3</ele>
        <time>2014-06-23T10:29:19Z</time>
      </trkpt>
      <trkpt lat="45.96398" lon="5.55307">
        <ele>805.4</ele>
        <time>2014-06-23T10:29:30Z</time>
      </trkpt>
      <trkpt lat="45.96436" lon="5.55297">
        <ele>803.6</ele>
        <time>2014-06-23T10:29:41Z</time>
      </trkpt>
      <trkpt lat="45.96484" lon="5.55276">
        <ele>811.6</ele>
        <time>2014-06-23T10:30:07Z</time>
      </trkpt>
      <trkpt lat="45.96514" lon="5.55274">
        <ele>816.8</ele>
        <time>2014-06-23T10:30:27Z</time>
      </trkpt>
      <trkpt lat="45.96542" lon="5.55281">
        <ele>822.8</ele>
        <time>2014-06-23T10:30:49Z</time>
      </trkpt>
      <trkpt lat="45.96579" lon="5.55273">
        <ele>826.7</ele>
        <time>2014-06-23T10:31:18Z</time>
      </trkpt>
      <trkpt lat="45.96599" lon="5.5528">
        <ele>824.9</ele>
        <time>2014-06-23T10:31:23Z</time>
      </trkpt>
      <trkpt lat="45.96626" lon="5.55308">
        <ele>824.4</ele>
        <time>2014-06-23T10:31:33Z</time>
      </trkpt>
      <trkpt lat="45.96654" lon="5.55326">
        <ele>822.9</ele>
        <time>2014-06-23T10:31:44Z</time>
      </trkpt>
      <trkpt lat="45.96702" lon="5.55334">
        <ele>827.8</ele>
        <time>2014-06-23T10:32:12Z</time>
      </trkpt>
      <trkpt lat="45.9669" lon="5.55329">
        <ele>826.2</ele>
        <time>2014-06-23T10:32:38Z</time>
      </trkpt>
      <trkpt lat="45.96692" lon="5.55375">
        <ele>813.7</ele>
        <time>2014-06-23T10:33:04Z</time>
      </trkpt>
      <trkpt lat="45.9671" lon="5.55386">
        <ele>810.6</ele>
        <time>2014-06-23T10:33:11Z</time>
      </trkpt>
      <trkpt lat="45.96742" lon="5.55437">
        <ele>814.8</ele>
        <time>2014-06-23T10:33:40Z</time>
      </trkpt>
      <trkpt lat="45.96809" lon="5.55471">
        <ele>814</ele>
        <time>2014-06-23T10:34:12Z</time>
      </trkpt>
      <trkpt lat="45.96834" lon="5.55491">
        <ele>813.2</ele>
        <time>2014-06-23T10:34:27Z</time>
      </trkpt>
      <trkpt lat="45.96851" lon="5.55508">
        <ele>812.7</ele>
        <time>2014-06-23T10:34:36Z</time>
      </trkpt>
      <trkpt lat="45.96881" lon="5.5552">
        <ele>811.9</ele>
        <time>2014-06-23T10:34:50Z</time>
      </trkpt>
      <trkpt lat="45.96919" lon="5.55553">
        <ele>808.9</ele>
        <time>2014-06-23T10:35:00Z</time>
      </trkpt>
      <trkpt lat="45.96938" lon="5.55565">
        <ele>806.9</ele>
        <time>2014-06-23T10:35:04Z</time>
      </trkpt>
      <trkpt lat="45.96968" lon="5.5557">
        <ele>804.4</ele>
        <time>2014-06-23T10:35:13Z</time>
      </trkpt>
      <trkpt lat="45.97007" lon="5.55568">
        <ele>805.9</ele>
        <time>2014-06-23T10:35:26Z</time>
      </trkpt>
      <trkpt lat="45.9704" lon="5.55572">
        <ele>808.1</ele>
        <time>2014-06-23T10:35:38Z</time>
      </trkpt>
      <trkpt lat="45.97058" lon="5.55579">
        <ele>808.8</ele>
        <time>2014-06-23T10:35:44Z</time>
      </trkpt>
      <trkpt lat="45.97087" lon="5.55583">
        <ele>807.6</ele>
        <time>2014-06-23T10:35:53Z</time>
      </trkpt>
      <trkpt lat="45.97121" lon="5.55594">
        <ele>807</ele>
        <time>2014-06-23T10:36:11Z</time>
      </trkpt>
      <trkpt lat="45.97147" lon="5.55613">
        <ele>806.2</ele>
        <time>2014-06-23T10:36:23Z</time>
      </trkpt>
      <trkpt lat="45.9717" lon="5.55638">
        <ele>803.1</ele>
        <time>2014-06-23T10:36:27Z</time>
      </trkpt>
      <trkpt lat="45.97236" lon="5.55679">
        <ele>795.5</ele>
        <time>2014-06-23T10:36:41Z</time>
      </trkpt>
      <trkpt lat="45.97262" lon="5.55711">
        <ele>793.3</ele>
        <time>2014-06-23T10:36:48Z</time>
      </trkpt>
      <trkpt lat="45.97285" lon="5.55726">
        <ele>792.7</ele>
        <time>2014-06-23T10:36:52Z</time>
      </trkpt>
      <trkpt lat="45.97309" lon="5.55753">
        <ele>791.9</ele>
        <time>2014-06-23T10:36:58Z</time>
      </trkpt>
      <trkpt lat="45.97321" lon="5.55786">
        <ele>790.9</ele>
        <time>2014-06-23T10:37:04Z</time>
      </trkpt>
      <trkpt lat="45.97344" lon="5.55826">
        <ele>789.4</ele>
        <time>2014-06-23T10:37:10Z</time>
      </trkpt>
      <trkpt lat="45.9738" lon="5.55896">
        <ele>787.6</ele>
        <time>2014-06-23T10:37:22Z</time>
      </trkpt>
      <trkpt lat="45.97404" lon="5.55928">
        <ele>787.7</ele>
        <time>2014-06-23T10:37:29Z</time>
      </trkpt>
      <trkpt lat="45.97416" lon="5.55957">
        <ele>787.5</ele>
        <time>2014-06-23T10:37:34Z</time>
      </trkpt>
      <trkpt lat="45.97445" lon="5.55996">
        <ele>787.7</ele>
        <time>2014-06-23T10:37:43Z</time>
      </trkpt>
      <trkpt lat="45.97486" lon="5.56028">
        <ele>786.2</ele>
        <time>2014-06-23T10:37:54Z</time>
      </trkpt>
      <trkpt lat="45.97525" lon="5.56046">
        <ele>786.8</ele>
        <time>2014-06-23T10:38:02Z</time>
      </trkpt>
      <trkpt lat="45.97584" lon="5.56098">
        <ele>786.3</ele>
        <time>2014-06-23T10:38:14Z</time>
      </trkpt>
      <trkpt lat="45.97614" lon="5.56117">
        <ele>786.3</ele>
        <time>2014-06-23T10:38:20Z</time>
      </trkpt>
      <trkpt lat="45.97655" lon="5.56118">
        <ele>787.7</ele>
        <time>2014-06-23T10:38:28Z</time>
      </trkpt>
      <trkpt lat="45.97671" lon="5.56152">
        <ele>788.5</ele>
        <time>2014-06-23T10:38:37Z</time>
      </trkpt>
      <trkpt lat="45.9769" lon="5.56173">
        <ele>788.1</ele>
        <time>2014-06-23T10:38:43Z</time>
      </trkpt>
      <trkpt lat="45.97679" lon="5.56142">
        <ele>788.5</ele>
        <time>2014-06-23T10:39:02Z</time>
      </trkpt>
      <trkpt lat="45.97697" lon="5.56099">
        <ele>788</ele>
        <time>2014-06-23T10:39:11Z</time>
      </trkpt>
      <trkpt lat="45.97713" lon="5.56041">
        <ele>789</ele>
        <time>2014-06-23T10:39:24Z</time>
      </trkpt>
      <trkpt lat="45.97713" lon="5.56009">
        <ele>790.8</ele>
        <time>2014-06-23T10:39:32Z</time>
      </trkpt>
      <trkpt lat="45.97725" lon="5.55967">
        <ele>793.9</ele>
        <time>2014-06-23T10:39:48Z</time>
      </trkpt>
      <trkpt lat="45.97734" lon="5.55911">
        <ele>800.2</ele>
        <time>2014-06-23T10:40:13Z</time>
      </trkpt>
      <trkpt lat="45.97764" lon="5.5589">
        <ele>804.3</ele>
        <time>2014-06-23T10:40:38Z</time>
      </trkpt>
      <trkpt lat="45.97792" lon="5.55878">
        <ele>806.1</ele>
        <time>2014-06-23T10:40:50Z</time>
      </trkpt>
      <trkpt lat="45.97874" lon="5.55867">
        <ele>811.4</ele>
        <time>2014-06-23T10:41:33Z</time>
      </trkpt>
      <trkpt lat="45.9794" lon="5.55852">
        <ele>835.4</ele>
        <time>2014-06-23T10:41:33Z</time>
      </trkpt>
      <trkpt lat="45.98067" lon="5.55788">
        <ele>841.9</ele>
        <time>2014-06-23T10:41:33Z</time>
      </trkpt>
      <trkpt lat="45.98219" lon="5.55777">
        <ele>837.4</ele>
        <time>2014-06-23T10:41:33Z</time>
      </trkpt>
      <trkpt lat="45.98331" lon="5.55783">
        <ele>835.5</ele>
        <time>2014-06-23T10:41:33Z</time>
      </trkpt>
      <trkpt lat="45.98361" lon="5.55655">
        <ele>837.7</ele>
        <time>2014-06-23T10:41:33Z</time>
      </trkpt>
      <trkpt lat="45.98339" lon="5.55585">
        <ele>837.6</ele>
        <time>2014-06-23T10:41:33Z</time>
      </trkpt>
      <trkpt lat="45.98276" lon="5.55561">
        <ele>836.1</ele>
        <time>2014-06-23T10:41:33Z</time>
      </trkpt>
      <trkpt lat="45.98221" lon="5.55558">
        <ele>834.7</ele>
        <time>2014-06-23T10:41:33Z</time>
      </trkpt>
      <trkpt lat="45.98165" lon="5.55566">
        <ele>834.9</ele>
        <time>2014-06-23T10:41:33Z</time>
      </trkpt>
      <trkpt lat="45.98104" lon="5.55528">
        <ele>829.5</ele>
        <time>2014-06-23T10:41:33Z</time>
      </trkpt>
      <trkpt lat="45.98026" lon="5.55455">
        <ele>812</ele>
        <time>2014-06-23T10:41:33Z</time>
      </trkpt>
      <trkpt lat="45.9805" lon="5.55381">
        <ele>812.2</ele>
        <time>2014-06-23T10:41:33Z</time>
      </trkpt>
      <trkpt lat="45.98061" lon="5.55353">
        <ele>845.5</ele>
        <time>2014-06-23T12:42:46Z</time>
      </trkpt>
      <trkpt lat="45.98031" lon="5.55363">
        <ele>837.2</ele>
        <time>2014-06-23T12:42:57Z</time>
      </trkpt>
      <trkpt lat="45.98012" lon="5.55378">
        <ele>828.3</ele>
        <time>2014-06-23T12:43:04Z</time>
      </trkpt>
      <trkpt lat="45.97973" lon="5.55393">
        <ele>821.3</ele>
        <time>2014-06-23T12:43:22Z</time>
      </trkpt>
      <trkpt lat="45.97927" lon="5.55356">
        <ele>806.7</ele>
        <time>2014-06-23T12:43:37Z</time>
      </trkpt>
      <trkpt lat="45.97894" lon="5.5534">
        <ele>801.8</ele>
        <time>2014-06-23T12:43:45Z</time>
      </trkpt>
      <trkpt lat="45.9787" lon="5.55321">
        <ele>798</ele>
        <time>2014-06-23T12:43:50Z</time>
      </trkpt>
      <trkpt lat="45.9781" lon="5.55287">
        <ele>791.5</ele>
        <time>2014-06-23T12:43:58Z</time>
      </trkpt>
      <trkpt lat="45.97796" lon="5.55277">
        <ele>788.8</ele>
        <time>2014-06-23T12:44:00Z</time>
      </trkpt>
      <trkpt lat="45.97714" lon="5.5519">
        <ele>779.1</ele>
        <time>2014-06-23T12:44:12Z</time>
      </trkpt>
      <trkpt lat="45.97697" lon="5.55178">
        <ele>778.5</ele>
        <time>2014-06-23T12:44:14Z</time>
      </trkpt>
      <trkpt lat="45.97662" lon="5.5514">
        <ele>774.5</ele>
        <time>2014-06-23T12:44:19Z</time>
      </trkpt>
      <trkpt lat="45.97592" lon="5.55085">
        <ele>765.2</ele>
        <time>2014-06-23T12:44:30Z</time>
      </trkpt>
      <trkpt lat="45.97568" lon="5.55058">
        <ele>761.6</ele>
        <time>2014-06-23T12:44:34Z</time>
      </trkpt>
      <trkpt lat="45.97534" lon="5.55036">
        <ele>758</ele>
        <time>2014-06-23T12:44:38Z</time>
      </trkpt>
      <trkpt lat="45.9749" lon="5.55035">
        <ele>753.3</ele>
        <time>2014-06-23T12:44:44Z</time>
      </trkpt>
      <trkpt lat="45.97421" lon="5.55007">
        <ele>749.2</ele>
        <time>2014-06-23T12:45:05Z</time>
      </trkpt>
      <trkpt lat="45.97399" lon="5.55007">
        <ele>751.2</ele>
        <time>2014-06-23T12:45:10Z</time>
      </trkpt>
      <trkpt lat="45.97327" lon="5.55">
        <ele>746.5</ele>
        <time>2014-06-23T12:45:30Z</time>
      </trkpt>
      <trkpt lat="45.97277" lon="5.55017">
        <ele>745.1</ele>
        <time>2014-06-23T12:45:42Z</time>
      </trkpt>
      <trkpt lat="45.97257" lon="5.55018">
        <ele>745.7</ele>
        <time>2014-06-23T12:45:46Z</time>
      </trkpt>
      <trkpt lat="45.97184" lon="5.55005">
        <ele>741.7</ele>
        <time>2014-06-23T12:46:07Z</time>
      </trkpt>
      <trkpt lat="45.97111" lon="5.5498">
        <ele>739.1</ele>
        <time>2014-06-23T12:46:25Z</time>
      </trkpt>
      <trkpt lat="45.97046" lon="5.54975">
        <ele>738</ele>
        <time>2014-06-23T12:46:37Z</time>
      </trkpt>
      <trkpt lat="45.96971" lon="5.54961">
        <ele>733.3</ele>
        <time>2014-06-23T12:46:47Z</time>
      </trkpt>
      <trkpt lat="45.96879" lon="5.54967">
        <ele>728</ele>
        <time>2014-06-23T12:46:56Z</time>
      </trkpt>
      <trkpt lat="45.96813" lon="5.54972">
        <ele>720.1</ele>
        <time>2014-06-23T12:47:02Z</time>
      </trkpt>
      <trkpt lat="45.96781" lon="5.54984">
        <ele>717.2</ele>
        <time>2014-06-23T12:47:05Z</time>
      </trkpt>
      <trkpt lat="45.96749" lon="5.54988">
        <ele>713.7</ele>
        <time>2014-06-23T12:47:08Z</time>
      </trkpt>
      <trkpt lat="45.96662" lon="5.54984">
        <ele>705.9</ele>
        <time>2014-06-23T12:47:15Z</time>
      </trkpt>
      <trkpt lat="45.96649" lon="5.54984">
        <ele>705.2</ele>
        <time>2014-06-23T12:47:16Z</time>
      </trkpt>
      <trkpt lat="45.96557" lon="5.54993">
        <ele>695.8</ele>
        <time>2014-06-23T12:47:23Z</time>
      </trkpt>
      <trkpt lat="45.96516" lon="5.54993">
        <ele>692.4</ele>
        <time>2014-06-23T12:47:26Z</time>
      </trkpt>
      <trkpt lat="45.96448" lon="5.5502">
        <ele>688</ele>
        <time>2014-06-23T12:49:13Z</time>
      </trkpt>
      <trkpt lat="45.9639" lon="5.55048">
        <ele>688</ele>
        <time>2014-06-23T12:49:48Z</time>
      </trkpt>
      <trkpt lat="45.9633" lon="5.55106">
        <ele>691.7</ele>
        <time>2014-06-23T12:50:23Z</time>
      </trkpt>
      <trkpt lat="45.96296" lon="5.55161">
        <ele>693.5</ele>
        <time>2014-06-23T12:50:52Z</time>
      </trkpt>
      <trkpt lat="45.96268" lon="5.55199">
        <ele>696.1</ele>
        <time>2014-06-23T12:51:24Z</time>
      </trkpt>
      <trkpt lat="45.96235" lon="5.55271">
        <ele>699.5</ele>
        <time>2014-06-23T12:51:55Z</time>
      </trkpt>
      <trkpt lat="45.96217" lon="5.55338">
        <ele>702.3</ele>
        <time>2014-06-23T12:52:23Z</time>
      </trkpt>
      <trkpt lat="45.96186" lon="5.55389">
        <ele>704.3</ele>
        <time>2014-06-23T12:53:08Z</time>
      </trkpt>
      <trkpt lat="45.96159" lon="5.5553">
        <ele>708</ele>
        <time>2014-06-23T12:55:06Z</time>
      </trkpt>
      <trkpt lat="45.96148" lon="5.55586">
        <ele>620.9</ele>
        <time>2014-06-23T12:56:26Z</time>
      </trkpt>
      <trkpt lat="45.96156" lon="5.55651">
        <ele>629</ele>
        <time>2014-06-23T12:57:07Z</time>
      </trkpt>
      <trkpt lat="45.96211" lon="5.55796">
        <ele>664.8</ele>
        <time>2014-06-23T12:58:51Z</time>
      </trkpt>
      <trkpt lat="45.96302" lon="5.55912">
        <ele>722.4</ele>
        <time>2014-06-23T13:00:39Z</time>
      </trkpt>
      <trkpt lat="45.96322" lon="5.55929">
        <ele>727.2</ele>
        <time>2014-06-23T13:01:27Z</time>
      </trkpt>
      <trkpt lat="45.96332" lon="5.55953">
        <ele>724.8</ele>
        <time>2014-06-23T13:02:48Z</time>
      </trkpt>
      <trkpt lat="45.96404" lon="5.561">
        <ele>731</ele>
        <time>2014-06-23T13:03:43Z</time>
      </trkpt>
      <trkpt lat="45.96391" lon="5.56131">
        <ele>733</ele>
        <time>2014-06-23T13:04:05Z</time>
      </trkpt>
      <trkpt lat="45.96391" lon="5.56136">
        <ele>667.6</ele>
        <time>2014-06-23T13:04:05Z</time>
      </trkpt>
      <trkpt lat="45.96391" lon="5.56136">
        <ele>667.6</ele>
        <time>2014-06-23T13:04:05Z</time>
      </trkpt>
      <trkpt lat="45.96391" lon="5.56141">
        <ele>664.8</ele>
        <time>2014-06-23T13:04:05Z</time>
      </trkpt>
      <trkpt lat="45.96395" lon="5.56196">
        <ele>642.5</ele>
        <time>2014-06-23T13:04:05Z</time>
      </trkpt>
      <trkpt lat="45.96421" lon="5.56257">
        <ele>646.7</ele>
        <time>2014-06-23T13:04:05Z</time>
      </trkpt>
      <trkpt lat="45.96537" lon="5.56375">
        <ele>709.5</ele>
        <time>2014-06-23T13:06:32Z</time>
      </trkpt>
      <trkpt lat="45.96637" lon="5.56589">
        <ele>743</ele>
        <time>2014-06-23T13:09:29Z</time>
      </trkpt>
      <trkpt lat="45.96626" lon="5.56611">
        <ele>746.2</ele>
        <time>2014-06-23T13:10:28Z</time>
      </trkpt>
      <trkpt lat="45.9664" lon="5.56625">
        <ele>743.4</ele>
        <time>2014-06-23T13:12:35Z</time>
      </trkpt>
      <trkpt lat="45.96652" lon="5.56645">
        <ele>745</ele>
        <time>2014-06-23T13:12:52Z</time>
      </trkpt>
      <trkpt lat="45.96684" lon="5.56718">
        <ele>745.4</ele>
        <time>2014-06-23T13:13:29Z</time>
      </trkpt>
      <trkpt lat="45.96702" lon="5.5677">
        <ele>746.9</ele>
        <time>2014-06-23T13:13:49Z</time>
      </trkpt>
      <trkpt lat="45.96713" lon="5.56889">
        <ele>765.9</ele>
        <time>2014-06-23T13:15:22Z</time>
      </trkpt>
      <trkpt lat="45.96702" lon="5.5694">
        <ele>765.4</ele>
        <time>2014-06-23T13:16:25Z</time>
      </trkpt>
      <trkpt lat="45.96701" lon="5.56967">
        <ele>761.9</ele>
        <time>2014-06-23T13:16:40Z</time>
      </trkpt>
      <trkpt lat="45.96713" lon="5.57029">
        <ele>758.5</ele>
        <time>2014-06-23T13:16:55Z</time>
      </trkpt>
      <trkpt lat="45.96712" lon="5.57133">
        <ele>763.1</ele>
        <time>2014-06-23T13:17:22Z</time>
      </trkpt>
      <trkpt lat="45.96728" lon="5.5718">
        <ele>762.2</ele>
        <time>2014-06-23T13:17:34Z</time>
      </trkpt>
      <trkpt lat="45.96762" lon="5.57282">
        <ele>757.5</ele>
        <time>2014-06-23T13:17:58Z</time>
      </trkpt>
      <trkpt lat="45.96785" lon="5.57398">
        <ele>754.5</ele>
        <time>2014-06-23T13:18:17Z</time>
      </trkpt>
      <trkpt lat="45.96814" lon="5.57444">
        <ele>754.9</ele>
        <time>2014-06-23T13:18:28Z</time>
      </trkpt>
      <trkpt lat="45.96833" lon="5.57466">
        <ele>754.9</ele>
        <time>2014-06-23T13:18:34Z</time>
      </trkpt>
      <trkpt lat="45.96862" lon="5.57503">
        <ele>753.9</ele>
        <time>2014-06-23T13:20:52Z</time>
      </trkpt>
    </trkseg>
  </trk>
</gpx>